Time;durP1;ratioP1;P1;durP2;ratioP2;P2;SDS_P1;SDS_P2;PMS_P1;PMS_P2;Temp;Humidity;BMP_temperature;BMP_pressure;BME280_temperature;BME280_humidity;BME280_pressure;Samples;Min_cycle;Max_cycle;Signal;HPM_P1;HPM_P2
2021/04/07 00:00:18;;;;;;;1.55;0.70;;;20.70;41.90;;;;;;5090468;28;20517;-54
2021/04/07 00:02:44;;;;;;;2.92;0.95;;;20.70;41.90;;;;;;5091334;28;20110;-51
2021/04/07 00:05:14;;;;;;;2.83;0.70;;;20.70;41.90;;;;;;5090706;28;20111;-53
2021/04/07 00:07:43;;;;;;;1.83;0.60;;;20.70;41.90;;;;;;5091419;28;20135;-52
2021/04/07 00:10:12;;;;;;;2.22;0.80;;;20.70;41.90;;;;;;5090607;28;20020;-48
2021/04/07 00:12:38;;;;;;;3.50;0.60;;;20.70;41.80;;;;;;5091506;28;20035;-49
2021/04/07 00:15:09;;;;;;;2.67;0.73;;;20.70;41.80;;;;;;5090427;28;20024;-51
2021/04/07 00:17:34;;;;;;;3.77;0.70;;;20.70;41.80;;;;;;5091029;28;20067;-49
2021/04/07 00:20:00;;;;;;;0.98;0.50;;;20.70;41.70;;;;;;5091005;28;20052;-54
2021/04/07 00:22:25;;;;;;;1.05;0.88;;;20.70;41.70;;;;;;5093165;28;20066;-47
2021/04/07 00:24:51;;;;;;;2.90;0.57;;;20.70;41.60;;;;;;5094944;28;20131;-49
2021/04/07 00:27:18;;;;;;;0.95;0.47;;;20.60;41.50;;;;;;5093701;28;20516;-47
2021/04/07 00:29:44;;;;;;;3.50;0.60;;;20.60;41.40;;;;;;5094720;28;20381;-47
2021/04/07 00:32:09;;;;;;;2.40;0.50;;;20.70;41.50;;;;;;5092605;28;20024;-50
2021/04/07 00:34:35;;;;;;;2.28;0.90;;;20.60;41.30;;;;;;5094074;28;20028;-46
2021/04/07 00:37:01;;;;;;;2.80;0.60;;;20.60;41.30;;;;;;5094559;28;20036;-55
2021/04/07 00:39:27;;;;;;;1.05;0.70;;;20.60;41.30;;;;;;5094044;28;20086;-53
2021/04/07 00:41:52;;;;;;;2.47;0.70;;;20.60;41.30;;;;;;5094603;28;20046;-48
2021/04/07 00:44:18;;;;;;;2.30;0.63;;;20.60;41.30;;;;;;5093651;28;20520;-50
2021/04/07 00:46:44;;;;;;;0.98;0.70;;;20.60;41.20;;;;;;5094234;28;20027;-49
2021/04/07 00:49:09;;;;;;;3.58;0.57;;;20.60;41.10;;;;;;5093614;28;20108;-50
2021/04/07 00:51:35;;;;;;;2.28;0.40;;;20.60;41.10;;;;;;5094455;28;20078;-49
2021/04/07 00:54:01;;;;;;;1.42;0.88;;;20.60;41.10;;;;;;5093650;28;20038;-54
2021/04/07 00:56:26;;;;;;;1.48;0.60;;;20.60;41.10;;;;;;5093868;28;20035;-51
2021/04/07 00:58:52;;;;;;;3.50;0.70;;;20.60;41.10;;;;;;5093973;28;20090;-52
2021/04/07 01:01:18;;;;;;;0.90;0.50;;;20.60;41.00;;;;;;5093412;28;20085;-51
2021/04/07 01:03:43;;;;;;;2.20;0.40;;;20.60;40.90;;;;;;5092529;28;20080;-55
2021/04/07 01:06:09;;;;;;;1.90;0.57;;;20.60;41.00;;;;;;5093130;28;20034;-52
2021/04/07 01:08:35;;;;;;;1.08;0.50;;;20.60;40.90;;;;;;5093635;28;20034;-50
2021/04/07 01:11:01;;;;;;;7.70;1.30;;;20.60;40.90;;;;;;5093891;28;20032;-54
2021/04/07 01:13:27;;;;;;;1.08;0.50;;;20.60;40.80;;;;;;5093574;28;20028;-50
2021/04/07 01:15:53;;;;;;;0.85;0.50;;;20.60;40.80;;;;;;5092467;28;20072;-50
2021/04/07 01:18:19;;;;;;;0.82;0.40;;;20.60;40.90;;;;;;5093160;28;20060;-48
2021/04/07 01:20:45;;;;;;;0.93;0.40;;;20.60;40.80;;;;;;5093997;28;20032;-52
2021/04/07 01:23:11;;;;;;;1.38;0.60;;;20.60;40.70;;;;;;5092636;28;20427;-46
2021/04/07 01:25:38;;;;;;;1.27;0.50;;;20.60;40.70;;;;;;5093211;28;20401;-50
2021/04/07 01:28:04;;;;;;;3.30;0.52;;;20.60;41.40;;;;;;5092801;28;20591;-57
2021/04/07 01:30:30;;;;;;;1.13;0.40;;;20.60;40.70;;;;;;5093119;28;20028;-53
2021/04/07 01:32:55;;;;;;;1.77;0.50;;;20.60;40.70;;;;;;5093254;28;20031;-53
2021/04/07 01:35:23;;;;;;;0.40;0.30;;;20.50;40.60;;;;;;5092180;28;20828;-47
2021/04/07 01:37:48;;;;;;;1.63;0.45;;;20.60;40.60;;;;;;5093197;28;20043;-49
2021/04/07 01:40:17;;;;;;;0.93;0.40;;;20.60;40.60;;;;;;5092624;28;20026;-50
2021/04/07 01:42:44;;;;;;;1.20;0.57;;;20.60;40.60;;;;;;5093454;28;20055;-50
2021/04/07 01:45:11;;;;;;;1.27;0.60;;;20.60;40.60;;;;;;5092613;28;20024;-48
2021/04/07 01:47:37;;;;;;;1.58;0.50;;;20.60;40.50;;;;;;5093010;28;20028;-50
2021/04/07 01:50:05;;;;;;;1.33;0.60;;;20.60;40.50;;;;;;5093102;28;20513;-54
2021/04/07 01:52:31;;;;;;;0.63;0.30;;;20.60;40.40;;;;;;5092914;28;20048;-48
2021/04/07 01:54:57;;;;;;;1.10;0.63;;;20.60;40.40;;;;;;5092833;28;20401;-50
2021/04/07 01:57:23;;;;;;;1.33;0.68;;;20.50;40.40;;;;;;5092207;28;20044;-48
2021/04/07 01:59:49;;;;;;;0.77;0.47;;;20.60;40.30;;;;;;5092871;28;20094;-49
2021/04/07 02:02:15;;;;;;;1.27;0.50;;;20.50;40.40;;;;;;5092059;28;20081;-46
2021/04/07 02:04:41;;;;;;;1.33;0.47;;;20.50;40.20;;;;;;5092337;28;20024;-52
2021/04/07 02:07:15;;;;;;;0.60;0.40;;;20.60;40.30;;;;;;5092145;28;20024;-53
2021/04/07 02:09:42;;;;;;;2.60;0.80;;;20.50;40.30;;;;;;5092181;28;20070;-48
2021/04/07 02:12:08;;;;;;;1.63;0.50;;;20.60;40.20;;;;;;5092105;28;20107;-50
2021/04/07 02:14:34;;;;;;;1.00;0.47;;;20.50;40.20;;;;;;5091374;28;20032;-53
2021/04/07 02:17:04;;;;;;;0.63;0.40;;;20.60;40.30;;;;;;5092809;28;20039;-50
2021/04/07 02:19:33;;;;;;;1.70;0.50;;;20.60;40.20;;;;;;5092549;28;20035;-49
2021/04/07 02:22:04;;;;;;;1.05;0.40;;;20.50;40.20;;;;;;5092547;28;20032;-50
2021/04/07 02:24:30;;;;;;;0.80;0.40;;;20.50;40.10;;;;;;5091835;28;20032;-52
2021/04/07 02:26:55;;;;;;;0.50;0.35;;;20.50;39.90;;;;;;5092308;28;20036;-49
2021/04/07 02:29:22;;;;;;;0.57;0.30;;;20.50;40.00;;;;;;5091648;28;20032;-53
2021/04/07 02:31:47;;;;;;;0.75;0.40;;;20.50;40.00;;;;;;5092455;28;20098;-51
2021/04/07 02:34:13;;;;;;;0.98;0.40;;;20.60;40.00;;;;;;5090345;28;20154;-47
2021/04/07 02:36:38;;;;;;;1.17;0.32;;;20.60;40.10;;;;;;5091760;28;20466;-48
2021/04/07 02:39:05;;;;;;;1.77;0.82;;;20.60;39.90;;;;;;5091416;28;20084;-53
2021/04/07 02:41:31;;;;;;;1.95;0.40;;;20.60;40.00;;;;;;5091266;28;20500;-54
2021/04/07 02:43:57;;;;;;;0.98;0.50;;;20.60;39.90;;;;;;5091512;28;20032;-52
2021/04/07 02:46:23;;;;;;;1.48;0.40;;;20.60;39.90;;;;;;5090589;28;20024;-52
2021/04/07 02:48:48;;;;;;;0.93;0.40;;;20.50;39.70;;;;;;5091994;28;20035;-52
2021/04/07 02:51:14;;;;;;;0.60;0.40;;;20.50;39.80;;;;;;5091449;28;20034;-51
2021/04/07 02:53:40;;;;;;;0.73;0.40;;;20.50;39.70;;;;;;5092571;28;20028;-52
2021/04/07 02:56:06;;;;;;;0.60;0.47;;;20.60;39.80;;;;;;5091875;28;20088;-53
2021/04/07 02:58:31;;;;;;;2.10;0.40;;;20.60;39.80;;;;;;5091372;28;20052;-50
2021/04/07 03:00:57;;;;;;;1.25;0.38;;;20.50;39.80;;;;;;5091771;28;20519;-48
2021/04/07 03:03:22;;;;;;;1.13;0.57;;;20.50;39.70;;;;;;5089556;28;20105;-47
2021/04/07 03:05:48;;;;;;;1.50;0.50;;;20.60;39.80;;;;;;5091786;28;20028;-51
2021/04/07 03:08:14;;;;;;;1.15;0.50;;;20.60;39.70;;;;;;5091262;28;20078;-50
2021/04/07 03:10:39;;;;;;;0.50;0.40;;;20.60;39.70;;;;;;5091708;28;20046;-48
2021/04/07 03:13:05;;;;;;;0.50;0.30;;;20.60;39.70;;;;;;5091584;28;20035;-54
2021/04/07 03:15:31;;;;;;;0.52;0.30;;;20.60;39.60;;;;;;5091675;28;20032;-50
2021/04/07 03:17:56;;;;;;;1.02;0.50;;;20.50;39.60;;;;;;5091616;28;20512;-53
2021/04/07 03:20:22;;;;;;;0.68;0.40;;;20.60;39.50;;;;;;5090942;28;20020;-52
2021/04/07 03:22:47;;;;;;;1.50;0.50;;;20.50;39.50;;;;;;5091900;28;20105;-51
2021/04/07 03:25:13;;;;;;;1.27;0.40;;;20.50;39.50;;;;;;5090814;28;20563;-47
2021/04/07 03:27:39;;;;;;;1.10;0.40;;;20.50;39.50;;;;;;5092123;28;20028;-47
2021/04/07 03:30:07;;;;;;;0.98;0.63;;;20.50;39.60;;;;;;5091773;28;20028;-52
2021/04/07 03:32:33;;;;;;;1.38;0.40;;;20.50;39.50;;;;;;5091752;28;20039;-46
2021/04/07 03:34:59;;;;;;;0.30;0.30;;;20.50;39.50;;;;;;5091161;28;20099;-53
2021/04/07 03:37:25;;;;;;;1.80;0.57;;;20.50;39.50;;;;;;5091033;28;20210;-48
2021/04/07 03:39:51;;;;;;;1.35;0.70;;;20.50;39.40;;;;;;5091380;28;20046;-51
2021/04/07 03:42:17;;;;;;;1.05;0.63;;;20.50;39.40;;;;;;5090689;28;20020;-49
2021/04/07 03:44:42;;;;;;;0.88;0.50;;;20.60;39.40;;;;;;5091492;28;20054;-49
2021/04/07 03:47:08;;;;;;;0.93;0.40;;;20.50;39.40;;;;;;5091208;28;20432;-54
2021/04/07 03:49:34;;;;;;;0.63;0.30;;;20.60;39.40;;;;;;5090286;28;20024;-47
2021/04/07 03:52:00;;;;;;;0.50;0.25;;;20.50;39.40;;;;;;5091610;28;20035;-48
2021/04/07 03:54:26;;;;;;;0.88;0.40;;;20.60;39.30;;;;;;5090851;28;20131;-48
2021/04/07 03:56:52;;;;;;;0.45;0.40;;;20.50;39.20;;;;;;5092733;28;20024;-50
2021/04/07 03:59:18;;;;;;;1.00;0.50;;;20.50;39.20;;;;;;5094482;28;20051;-51
2021/04/07 04:01:43;;;;;;;1.45;0.40;;;20.50;39.30;;;;;;5095219;28;20060;-52
2021/04/07 04:04:10;;;;;;;0.93;0.47;;;20.60;39.30;;;;;;5094601;28;20024;-54
2021/04/07 04:06:36;;;;;;;1.40;0.57;;;20.50;39.20;;;;;;5095157;28;20051;-52
2021/04/07 04:09:03;;;;;;;0.77;0.40;;;20.60;39.30;;;;;;5095283;28;20031;-46
2021/04/07 04:11:29;;;;;;;1.02;0.60;;;20.50;39.20;;;;;;5093946;28;20865;-53
2021/04/07 04:13:54;;;;;;;0.80;0.30;;;20.50;39.20;;;;;;5095452;28;20055;-53
2021/04/07 04:16:20;;;;;;;0.60;0.40;;;20.60;39.20;;;;;;5094157;28;20106;-53
2021/04/07 04:18:46;;;;;;;0.95;0.40;;;20.60;39.30;;;;;;5094767;28;20028;-49
2021/04/07 04:21:12;;;;;;;1.10;0.50;;;20.50;39.10;;;;;;5094170;28;20031;-47
2021/04/07 04:23:37;;;;;;;0.85;0.30;;;20.50;39.20;;;;;;5094845;28;20108;-45
2021/04/07 04:26:03;;;;;;;1.58;0.55;;;20.60;39.10;;;;;;5094718;28;20389;-49
2021/04/07 04:28:28;;;;;;;0.85;0.40;;;20.60;39.20;;;;;;5093815;28;20035;-48
2021/04/07 04:30:54;;;;;;;0.95;0.47;;;20.60;39.10;;;;;;5094528;28;20084;-50
2021/04/07 04:33:20;;;;;;;1.10;0.50;;;20.60;39.10;;;;;;5093096;28;20028;-47
2021/04/07 04:35:45;;;;;;;0.30;0.30;;;20.60;39.20;;;;;;5094414;28;20024;-47
2021/04/07 04:38:12;;;;;;;0.88;0.50;;;20.60;39.20;;;;;;5094132;28;20491;-53
2021/04/07 04:40:38;;;;;;;1.55;0.45;;;20.60;39.00;;;;;;5094675;28;20020;-47
2021/04/07 04:43:03;;;;;;;1.00;0.38;;;20.50;39.00;;;;;;5094086;28;20032;-54
2021/04/07 04:45:29;;;;;;;1.58;0.40;;;20.60;39.10;;;;;;5093532;28;20154;-51
2021/04/07 04:47:55;;;;;;;0.85;0.30;;;20.60;39.00;;;;;;5094371;28;20412;-46
2021/04/07 04:50:20;;;;;;;0.93;0.40;;;20.60;39.00;;;;;;5093548;28;20024;-47
2021/04/07 04:52:46;;;;;;;0.85;0.40;;;20.60;39.00;;;;;;5094357;28;20059;-47
2021/04/07 04:55:12;;;;;;;0.55;0.30;;;20.60;38.90;;;;;;5093473;28;20024;-51
2021/04/07 04:57:38;;;;;;;1.45;0.40;;;20.60;38.90;;;;;;5093523;28;20044;-49
2021/04/07 05:00:08;;;;;;;0.70;0.40;;;20.60;38.90;;;;;;5094353;28;20426;-48
2021/04/07 05:02:33;;;;;;;0.93;0.43;;;20.60;38.90;;;;;;5093523;28;20099;-46
2021/04/07 05:04:59;;;;;;;0.55;0.40;;;20.60;38.80;;;;;;5093794;28;20111;-48
2021/04/07 05:07:25;;;;;;;1.33;0.50;;;20.60;38.90;;;;;;5092683;28;20098;-51
2021/04/07 05:09:50;;;;;;;1.35;0.38;;;20.60;38.80;;;;;;5093778;28;20453;-46
2021/04/07 05:12:16;;;;;;;1.05;0.45;;;20.60;38.80;;;;;;5093034;28;20031;-47
2021/04/07 05:14:42;;;;;;;0.70;0.50;;;20.60;38.80;;;;;;5093830;28;20020;-48
2021/04/07 05:17:07;;;;;;;1.13;0.40;;;20.60;38.80;;;;;;5093980;28;20369;-51
2021/04/07 05:19:33;;;;;;;1.05;0.40;;;20.60;38.80;;;;;;5093040;28;20175;-52
2021/04/07 05:21:59;;;;;;;0.47;0.30;;;20.60;38.80;;;;;;5093859;28;20400;-49
2021/04/07 05:24:24;;;;;;;0.93;0.40;;;20.60;38.80;;;;;;5092751;28;20047;-48
2021/04/07 05:26:50;;;;;;;0.80;0.52;;;20.60;38.70;;;;;;5093814;28;20066;-52
2021/04/07 05:29:16;;;;;;;0.80;0.40;;;20.60;38.60;;;;;;5091483;28;20121;-49
2021/04/07 05:31:41;;;;;;;0.57;0.30;;;20.60;38.70;;;;;;5093097;28;20095;-45
2021/04/07 05:34:07;;;;;;;2.38;0.43;;;20.60;38.80;;;;;;5093209;28;20024;-51
2021/04/07 05:36:32;;;;;;;0.77;0.35;;;20.60;38.80;;;;;;5091498;28;20052;-50
2021/04/07 05:38:58;;;;;;;3.60;0.50;;;20.60;39.40;;;;;;5093146;28;20115;-54
2021/04/07 05:41:24;;;;;;;1.80;0.40;;;20.70;39.00;;;;;;5092809;28;20031;-50
2021/04/07 05:43:50;;;;;;;2.75;0.52;;;20.70;39.00;;;;;;5093219;28;20127;-49
2021/04/07 05:46:16;;;;;;;2.28;0.60;;;20.70;39.00;;;;;;5092656;28;20385;-54
2021/04/07 05:48:41;;;;;;;4.90;0.80;;;20.70;38.90;;;;;;5093088;28;20430;-47
2021/04/07 05:51:08;;;;;;;10.18;1.23;;;20.70;39.00;;;;;;5093276;28;20103;-50
2021/04/07 05:53:34;;;;;;;3.80;0.68;;;20.80;39.10;;;;;;5091746;28;20027;-48
2021/04/07 05:56:00;;;;;;;7.50;1.23;;;20.80;39.40;;;;;;5093079;28;20024;-52
2021/04/07 05:58:28;;;;;;;5.93;0.68;;;20.80;39.40;;;;;;5091593;28;20374;-54
2021/04/07 06:00:54;;;;;;;6.60;0.47;;;20.80;40.00;;;;;;5092954;28;20042;-49
2021/04/07 06:03:20;;;;;;;4.45;0.70;;;20.80;40.10;;;;;;5091759;28;20032;-50
2021/04/07 06:05:48;;;;;;;6.28;0.65;;;20.80;40.50;;;;;;5086666;28;20024;-48
2021/04/07 06:08:14;;;;;;;6.07;0.70;;;20.80;40.50;;;;;;5091548;28;20024;-50
2021/04/07 06:10:43;;;;;;;7.00;0.50;;;20.80;40.60;;;;;;5092120;28;20534;-50
2021/04/07 06:13:11;;;;;;;1.67;0.52;;;20.80;40.60;;;;;;5091325;28;20035;-52
2021/04/07 06:15:38;;;;;;;2.65;0.60;;;20.80;40.50;;;;;;5091378;28;20031;-47
2021/04/07 06:18:07;;;;;;;4.80;0.80;;;20.80;40.50;;;;;;5081720;28;20036;-50
2021/04/07 06:20:37;;;;;;;1.02;0.60;;;20.80;40.50;;;;;;5091083;28;20059;-53
2021/04/07 06:23:04;;;;;;;1.90;0.70;;;20.80;40.50;;;;;;5092588;28;20059;-50
2021/04/07 06:25:30;;;;;;;3.10;0.50;;;20.70;40.40;;;;;;5091540;28;20032;-53
2021/04/07 06:27:58;;;;;;;5.10;0.57;;;20.70;40.40;;;;;;5092572;28;20103;-50
2021/04/07 06:30:44;;;;;;;3.40;0.95;;;20.80;40.50;;;;;;5091140;28;20107;-52
2021/04/07 06:33:17;;;;;;;2.67;0.70;;;20.80;40.60;;;;;;5092238;28;20028;-50
2021/04/07 06:35:45;;;;;;;5.10;1.42;;;20.80;40.80;;;;;;5078358;28;20028;-48
2021/04/07 06:38:11;;;;;;;2.55;0.80;;;20.80;41.00;;;;;;5071661;28;20120;-53
2021/04/07 06:40:37;;;;;;;2.42;0.75;;;20.80;41.30;;;;;;5071764;28;20038;-49
2021/04/07 06:43:03;;;;;;;2.90;0.68;;;20.80;41.50;;;;;;5071056;28;20028;-51
2021/04/07 06:45:31;;;;;;;3.65;0.60;;;20.80;41.80;;;;;;5071923;28;20024;-54
2021/04/07 06:47:57;;;;;;;3.53;0.60;;;20.80;42.60;;;;;;5090315;28;20113;-53
2021/04/07 06:50:24;;;;;;;2.00;0.52;;;20.80;41.80;;;;;;5072521;28;20378;-49
2021/04/07 06:52:51;;;;;;;4.88;0.50;;;20.80;41.80;;;;;;5072698;28;20035;-48
2021/04/07 06:55:17;;;;;;;3.13;0.50;;;20.80;41.70;;;;;;5070798;28;20024;-48
2021/04/07 06:57:45;;;;;;;3.60;0.80;;;20.80;41.80;;;;;;5071642;28;20060;-48
2021/04/07 07:00:12;;;;;;;4.30;0.80;;;20.80;41.70;;;;;;5071553;28;20040;-48
2021/04/07 07:02:37;;;;;;;5.60;0.70;;;20.80;41.70;;;;;;5070822;28;20493;-47
2021/04/07 07:05:04;;;;;;;3.22;0.82;;;20.80;41.70;;;;;;5068760;28;20129;-50
2021/04/07 07:07:30;;;;;;;3.25;0.60;;;20.70;41.60;;;;;;5089949;28;20039;-49
2021/04/07 07:09:56;;;;;;;3.42;0.70;;;20.70;41.60;;;;;;5092689;28;20025;-49
2021/04/07 07:12:22;;;;;;;3.60;0.68;;;20.70;41.50;;;;;;5091081;28;20034;-47
2021/04/07 07:14:49;;;;;;;5.65;0.50;;;20.70;41.30;;;;;;5072345;28;20033;-47
2021/04/07 07:17:29;;;;;;;1.98;0.50;;;20.70;41.20;;;;;;5086748;28;20439;-54
2021/04/07 07:19:55;;;;;;;3.80;0.85;;;20.70;41.20;;;;;;5069043;28;20370;-49
2021/04/07 07:22:23;;;;;;;2.85;0.70;;;20.70;41.10;;;;;;5068341;28;20021;-49
2021/04/07 07:24:54;;;;;;;1.95;0.60;;;20.70;41.10;;;;;;5072020;28;20488;-48
2021/04/07 07:27:20;;;;;;;2.05;0.68;;;20.70;41.10;;;;;;5070793;28;20040;-48
2021/04/07 07:29:55;;;;;;;3.35;0.70;;;20.70;41.00;;;;;;5071563;28;20040;-47
2021/04/07 07:32:31;;;;;;;2.15;0.60;;;20.70;41.00;;;;;;5074337;28;20492;-47
2021/04/07 07:35:09;;;;;;;3.13;0.60;;;20.70;41.00;;;;;;5075143;28;20025;-49
2021/04/07 07:37:35;;;;;;;6.93;0.95;;;20.70;40.90;;;;;;5074637;28;20095;-49
2021/04/07 07:40:03;;;;;;;1.45;0.50;;;20.70;40.90;;;;;;5075483;28;20029;-47
2021/04/07 07:42:29;;;;;;;1.73;0.47;;;20.60;40.70;;;;;;5074576;28;20099;-51
2021/04/07 07:44:55;;;;;;;1.45;0.40;;;20.70;40.80;;;;;;5075017;28;20079;-47
2021/04/07 07:47:28;;;;;;;1.50;0.50;;;20.70;40.70;;;;;;5090810;28;20029;-49
2021/04/07 07:50:03;;;;;;;2.65;0.50;;;20.70;40.60;;;;;;5090585;28;20039;-47
2021/04/07 07:52:33;;;;;;;2.55;0.68;;;20.70;40.60;;;;;;5079901;28;20461;-47
2021/04/07 07:55:11;;;;;;;2.40;0.45;;;20.70;40.60;;;;;;5095532;28;20035;-47
2021/04/07 07:57:37;;;;;;;3.53;0.65;;;20.70;40.50;;;;;;5094255;28;20040;-48
2021/04/07 08:00:10;;;;;;;2.58;0.50;;;20.60;40.40;;;;;;5095143;28;20043;-47
2021/04/07 08:02:38;;;;;;;2.40;0.45;;;20.60;40.40;;;;;;5093991;28;20028;-49
2021/04/07 08:05:15;;;;;;;1.40;0.50;;;20.70;40.40;;;;;;5094726;28;20024;-51
2021/04/07 08:07:40;;;;;;;4.30;0.82;;;20.70;40.40;;;;;;5093530;28;20028;-51
2021/04/07 08:10:07;;;;;;;1.45;0.60;;;20.60;40.20;;;;;;5095041;28;20028;-53
2021/04/07 08:12:33;;;;;;;1.67;0.60;;;20.60;40.10;;;;;;5094299;28;20031;-53
2021/04/07 08:15:01;;;;;;;1.13;0.50;;;20.60;40.00;;;;;;5094804;28;20431;-51
2021/04/07 08:17:29;;;;;;;0.77;0.32;;;20.60;40.00;;;;;;5093572;28;20377;-49
2021/04/07 08:19:56;;;;;;;2.88;1.00;;;20.60;39.80;;;;;;5094849;28;20525;-50
2021/04/07 08:22:23;;;;;;;2.97;0.60;;;20.60;39.90;;;;;;5094360;28;20036;-50
2021/04/07 08:24:51;;;;;;;2.22;0.50;;;20.60;39.90;;;;;;5094847;28;20369;-48
2021/04/07 08:27:20;;;;;;;2.67;0.52;;;20.60;39.80;;;;;;5094335;28;20028;-56
2021/04/07 08:29:46;;;;;;;2.03;0.65;;;20.60;39.80;;;;;;5094418;28;20106;-51
2021/04/07 08:32:14;;;;;;;1.50;0.50;;;20.60;39.80;;;;;;5094319;28;20147;-50
2021/04/07 08:34:40;;;;;;;0.60;0.35;;;20.60;39.80;;;;;;5094031;28;20028;-50
2021/04/07 08:37:06;;;;;;;1.17;0.50;;;20.60;39.60;;;;;;5094651;28;20206;-52
2021/04/07 08:39:44;;;;;;;1.70;0.38;;;20.60;39.60;;;;;;5093591;28;20028;-52
2021/04/07 08:42:11;;;;;;;1.17;0.38;;;20.60;39.60;;;;;;5093599;28;20071;-51
2021/04/07 08:44:44;;;;;;;4.72;0.65;;;20.60;39.70;;;;;;5079832;28;20210;-52
2021/04/07 08:47:28;;;;;;;1.52;0.63;;;20.60;39.60;;;;;;5088517;28;20032;-49
2021/04/07 08:50:06;;;;;;;1.05;0.60;;;20.60;39.60;;;;;;5093489;28;20028;-52
2021/04/07 08:52:41;;;;;;;0.85;0.50;;;20.60;39.60;;;;;;5070588;28;20032;-54
2021/04/07 08:55:18;;;;;;;1.80;0.60;;;20.60;39.60;;;;;;5074185;28;20033;-53
2021/04/07 08:58:01;;;;;;;1.20;0.73;;;20.60;39.60;;;;;;5073614;28;20057;-53
2021/04/07 09:00:28;;;;;;;;;;;20.60;39.50;;;;;;5073560;28;20028;-49
2021/04/07 09:02:56;;;;;;;1.80;0.90;;;20.60;39.60;;;;;;5081856;28;19962;-46
2021/04/07 09:05:43;;;;;;;1.75;0.63;;;20.60;39.50;;;;;;5091049;28;20028;-50
2021/04/07 09:08:14;;;;;;;3.13;0.55;;;20.60;39.40;;;;;;5092510;28;20043;-52
2021/04/07 09:10:41;;;;;;;2.05;0.47;;;20.60;39.40;;;;;;5092130;28;20040;-51
2021/04/07 09:13:12;;;;;;;2.10;0.68;;;20.60;39.40;;;;;;5092680;28;20105;-51
2021/04/07 09:16:01;;;;;;;1.15;0.50;;;20.60;39.30;;;;;;5090820;28;20028;-50
2021/04/07 09:18:39;;;;;;;0.98;0.45;;;20.60;39.30;;;;;;5091853;28;20035;-50
2021/04/07 09:21:07;;;;;;;2.03;0.43;;;20.60;39.30;;;;;;5087240;28;20035;-50
2021/04/07 09:23:37;;;;;;;1.38;0.50;;;20.60;39.30;;;;;;5092436;28;20027;-50
2021/04/07 09:26:14;;;;;;;1.17;0.57;;;20.60;39.30;;;;;;5093067;28;20032;-48
2021/04/07 09:28:45;;;;;;;1.17;0.77;;;20.60;39.30;;;;;;5092284;28;20027;-52
2021/04/07 09:31:18;;;;;;;1.00;0.40;;;20.60;39.30;;;;;;5091888;28;20394;-55
2021/04/07 09:33:48;;;;;;;0.95;0.50;;;20.60;39.30;;;;;;5091911;28;20032;-52
2021/04/07 09:36:16;;;;;;;1.08;0.40;;;20.60;39.30;;;;;;5092727;28;20028;-51
2021/04/07 09:38:50;;;;;;;0.93;0.40;;;20.60;39.20;;;;;;5092318;28;20043;-47
2021/04/07 09:41:28;;;;;;;0.88;0.43;;;20.60;39.10;;;;;;5092752;28;20028;-52
2021/04/07 09:43:55;;;;;;;1.67;0.35;;;20.60;39.20;;;;;;5086262;28;20036;-51
2021/04/07 09:46:22;;;;;;;1.35;0.50;;;20.60;39.20;;;;;;5092131;28;20024;-56
2021/04/07 09:48:50;;;;;;;0.90;0.50;;;20.60;39.10;;;;;;5087052;28;20039;-52
2021/04/07 09:51:20;;;;;;;0.82;0.43;;;20.60;39.10;;;;;;5092325;28;20165;-49
2021/04/07 09:53:46;;;;;;;1.25;0.50;;;20.60;39.10;;;;;;5092726;28;20032;-49
2021/04/07 09:56:12;;;;;;;0.90;0.50;;;20.60;39.00;;;;;;5092673;28;20051;-52
2021/04/07 09:58:57;;;;;;;1.85;0.63;;;20.60;39.00;;;;;;5091423;28;20559;-52
2021/04/07 10:01:24;;;;;;;0.98;0.47;;;20.60;39.00;;;;;;5091572;28;20101;-53
2021/04/07 10:03:52;;;;;;;1.25;0.40;;;20.70;39.00;;;;;;5092202;28;20035;-50
2021/04/07 10:06:26;;;;;;;1.30;0.45;;;20.70;39.10;;;;;;5092291;28;20038;-55
2021/04/07 10:09:03;;;;;;;2.20;0.50;;;20.70;39.10;;;;;;5092591;28;20036;-52
2021/04/07 10:11:30;;;;;;;1.50;0.50;;;20.70;39.20;;;;;;5091390;28;20488;-53
2021/04/07 10:14:00;;;;;;;0.77;0.60;;;20.70;39.20;;;;;;5082746;28;20040;-54
2021/04/07 10:16:33;;;;;;;2.45;0.68;;;20.70;39.70;;;;;;5089810;28;20110;-49
2021/04/07 10:19:00;;;;;;;2.78;0.70;;;20.80;39.80;;;;;;5090963;28;20035;-50
2021/04/07 10:21:26;;;;;;;1.67;0.60;;;20.80;40.30;;;;;;5089723;28;20034;-49
2021/04/07 10:23:55;;;;;;;3.28;1.08;;;20.80;41.00;;;;;;5092115;28;20032;-53
2021/04/07 10:26:21;;;;;;;1.17;0.68;;;20.70;40.90;;;;;;5091721;28;20016;-54
2021/04/07 10:28:58;;;;;;;0.85;0.60;;;20.70;40.80;;;;;;5092223;28;20042;-54
2021/04/07 10:31:24;;;;;;;0.75;0.65;;;20.70;40.70;;;;;;5090693;28;20468;-51
2021/04/07 10:34:04;;;;;;;1.00;0.55;;;20.60;40.50;;;;;;5091699;28;20035;-47
2021/04/07 10:36:30;;;;;;;1.98;0.70;;;20.60;40.40;;;;;;5087785;28;20039;-50
2021/04/07 10:39:11;;;;;;;1.55;0.50;;;20.70;40.30;;;;;;5089968;28;20063;-54
2021/04/07 10:41:36;;;;;;;1.30;0.55;;;20.70;40.20;;;;;;5091107;28;20024;-49
2021/04/07 10:44:02;;;;;;;3.72;0.60;;;20.60;40.00;;;;;;5090695;28;20031;-47
2021/04/07 10:46:30;;;;;;;1.92;0.60;;;20.60;40.00;;;;;;5090555;28;20034;-51
2021/04/07 10:49:00;;;;;;;1.00;0.68;;;20.60;39.80;;;;;;5091853;28;20055;-48
2021/04/07 10:51:29;;;;;;;1.17;0.52;;;20.60;39.70;;;;;;5090474;28;20039;-53
2021/04/07 10:53:59;;;;;;;1.20;0.50;;;20.60;39.60;;;;;;5091558;28;20024;-51
2021/04/07 10:56:28;;;;;;;3.28;0.60;;;20.60;39.50;;;;;;5090319;28;20032;-50
2021/04/07 10:59:00;;;;;;;1.00;0.60;;;20.60;39.40;;;;;;5083759;28;20040;-51
2021/04/07 11:01:31;;;;;;;1.42;0.70;;;20.60;39.30;;;;;;5089628;28;20461;-50
2021/04/07 11:03:57;;;;;;;0.87;0.57;;;20.60;39.10;;;;;;5088753;28;20028;-51
2021/04/07 11:06:24;;;;;;;2.03;1.10;;;20.60;39.20;;;;;;5090107;28;20270;-56
2021/04/07 11:08:53;;;;;;;4.40;0.95;;;20.60;39.00;;;;;;5091464;28;20122;-49
2021/04/07 11:11:26;;;;;;;0.57;0.40;;;20.60;38.90;;;;;;5091611;28;20115;-49
2021/04/07 11:13:54;;;;;;;1.95;0.57;;;20.60;38.80;;;;;;5091410;28;20050;-49
2021/04/07 11:16:32;;;;;;;1.40;0.57;;;20.60;38.70;;;;;;5090677;28;20051;-55
2021/04/07 11:18:58;;;;;;;1.67;0.60;;;20.60;38.70;;;;;;5084079;28;20039;-47
2021/04/07 11:21:24;;;;;;;1.73;0.60;;;20.60;38.50;;;;;;5091655;28;20032;-47
2021/04/07 11:23:50;;;;;;;1.60;0.63;;;20.60;38.40;;;;;;5091398;28;20489;-48
2021/04/07 11:26:16;;;;;;;1.05;0.60;;;20.60;38.30;;;;;;5090709;28;20089;-50
2021/04/07 11:28:42;;;;;;;1.17;0.68;;;20.60;38.30;;;;;;5090438;28;20035;-48
2021/04/07 11:31:18;;;;;;;1.00;0.50;;;20.60;38.20;;;;;;5089963;28;20121;-50
2021/04/07 11:33:50;;;;;;;1.38;0.50;;;20.60;38.20;;;;;;5089642;28;20498;-52
2021/04/07 11:42:01;;;;;;;1.73;0.60;;;20.60;38.60;;;;;;5090486;28;20035;-49
2021/04/07 11:44:30;;;;;;;1.67;0.45;;;20.60;37.90;;;;;;5081245;28;20069;-50
2021/04/07 11:47:01;;;;;;;0.93;0.38;;;20.60;37.80;;;;;;5091005;28;20061;-49
2021/04/07 11:49:27;;;;;;;4.72;0.85;;;20.60;37.70;;;;;;5082123;28;20025;-49
2021/04/07 11:51:53;;;;;;;1.48;0.77;;;20.60;37.70;;;;;;5090952;28;20025;-52
2021/04/07 11:54:20;;;;;;;0.85;0.47;;;20.60;37.70;;;;;;5091075;28;20032;-52
2021/04/07 11:56:47;;;;;;;1.55;0.68;;;20.60;37.50;;;;;;5081383;28;20043;-54
2021/04/07 11:59:15;;;;;;;1.67;0.77;;;20.60;37.30;;;;;;5089496;28;20157;-51
2021/04/07 12:01:42;;;;;;;1.48;0.65;;;20.60;37.50;;;;;;5089954;28;20028;-47
2021/04/07 12:04:08;;;;;;;1.77;0.60;;;20.60;37.40;;;;;;5073185;28;20469;-48
2021/04/07 12:06:34;;;;;;;2.65;0.70;;;20.60;37.50;;;;;;5082803;28;20035;-47
2021/04/07 12:08:59;;;;;;;0.68;0.40;;;20.60;37.30;;;;;;5091878;28;20038;-49
2021/04/07 12:11:26;;;;;;;1.00;0.60;;;20.70;38.00;;;;;;5090942;28;20028;-47
2021/04/07 12:13:53;;;;;;;2.13;0.40;;;20.70;38.00;;;;;;5088867;28;20035;-52
2021/04/07 12:16:18;;;;;;;1.45;0.50;;;20.70;38.10;;;;;;5090909;28;20055;-52
2021/04/07 12:18:44;;;;;;;0.88;0.40;;;20.70;38.20;;;;;;5092143;28;20075;-50
2021/04/07 12:21:12;;;;;;;1.38;0.38;;;20.70;38.20;;;;;;5094260;28;20085;-49
2021/04/07 12:23:38;;;;;;;1.42;0.50;;;20.70;38.30;;;;;;5093019;28;20427;-48
2021/04/07 12:26:04;;;;;;;1.48;0.43;;;20.70;38.20;;;;;;5094349;28;20052;-50
2021/04/07 12:28:30;;;;;;;1.95;0.50;;;20.70;38.20;;;;;;5092026;28;20039;-49
2021/04/07 12:30:55;;;;;;;2.22;0.47;;;20.70;38.20;;;;;;5083765;28;20057;-52
2021/04/07 12:33:25;;;;;;;1.42;0.43;;;20.70;38.20;;;;;;5086525;28;20060;-57
2021/04/07 12:35:51;;;;;;;1.02;0.50;;;20.70;38.20;;;;;;5090480;28;20534;-49
2021/04/07 12:38:17;;;;;;;3.13;0.75;;;20.70;38.20;;;;;;5092380;28;20032;-47
2021/04/07 12:40:49;;;;;;;1.45;0.65;;;20.70;38.30;;;;;;5093078;28;20566;-53
2021/04/07 12:43:15;;;;;;;1.65;0.50;;;20.70;38.30;;;;;;5091968;28;20039;-51
2021/04/07 12:45:41;;;;;;;1.23;0.50;;;20.80;38.40;;;;;;5089946;28;20111;-53
2021/04/07 12:48:07;;;;;;;1.52;0.47;;;20.80;38.30;;;;;;5093311;28;20111;-52
2021/04/07 12:50:34;;;;;;;1.08;0.47;;;20.80;38.30;;;;;;5092465;28;20035;-48
2021/04/07 12:53:00;;;;;;;1.55;0.90;;;20.80;38.30;;;;;;5093416;28;20028;-49
2021/04/07 12:55:26;;;;;;;0.93;0.43;;;20.80;38.40;;;;;;5092959;28;20477;-56